Time;durP1;ratioP1;P1;durP2;ratioP2;P2;SDS_P1;SDS_P2;PMS_P1;PMS_P2;Temp;Humidity;BMP_temperature;BMP_pressure;BME280_temperature;BME280_humidity;BME280_pressure;Samples;Min_cycle;Max_cycle;Signal;HPM_P1;HPM_P2
2021/08/04 00:01:14;;;;;;;6.85;1.30;;;;;;;14.67;82.06;100067.63;126507;1093;23024;-78
2021/08/04 00:03:43;;;;;;;4.00;1.10;;;;;;;14.71;82.45;100063.25;126514;1093;26223;-77
2021/08/04 00:06:11;;;;;;;4.53;1.20;;;;;;;14.73;82.59;100079.63;126563;1093;22770;-77
2021/08/04 00:08:39;;;;;;;5.85;1.30;;;;;;;14.75;82.32;100065.83;126608;1093;25855;-78
2021/08/04 00:11:08;;;;;;;5.50;1.30;;;;;;;14.75;82.38;100066.59;126463;1093;22810;-77
2021/08/04 00:13:37;;;;;;;4.20;1.20;;;;;;;14.77;82.64;100077.32;126658;1093;22855;-77
2021/08/04 00:16:06;;;;;;;6.30;1.40;;;;;;;14.78;82.56;100085.23;126471;1093;22940;-78
2021/08/04 00:18:34;;;;;;;6.95;1.70;;;;;;;14.78;82.69;100082.42;126497;1093;22882;-78
2021/08/04 00:21:04;;;;;;;4.90;1.47;;;;;;;14.81;82.55;100072.20;126501;1093;26602;-78
2021/08/04 00:23:32;;;;;;;5.93;1.27;;;;;;;14.81;83.09;100060.97;126540;1093;25867;-77
2021/08/04 00:26:00;;;;;;;5.30;1.30;;;;;;;14.81;82.98;100072.20;126477;1093;23513;-77
2021/08/04 00:28:29;;;;;;;5.77;1.10;;;;;;;14.82;82.70;100070.91;126496;1093;22832;-78
2021/08/04 00:30:58;;;;;;;5.95;1.20;;;;;;;14.83;82.95;100056.37;126527;1093;22740;-78
2021/08/04 00:33:27;;;;;;;3.43;1.00;;;;;;;14.85;82.89;100042.56;126440;1093;27199;-79
2021/08/04 00:35:56;;;;;;;6.45;1.20;;;;;;;14.89;82.83;100045.88;126535;1093;22954;-77
2021/08/04 00:38:24;;;;;;;4.60;1.30;;;;;;;14.89;82.71;100045.88;126507;1093;22827;-77
2021/08/04 00:40:53;;;;;;;5.35;1.20;;;;;;;14.89;82.62;100043.07;126486;1093;22835;-77
2021/08/04 00:43:22;;;;;;;6.55;1.35;;;;;;;14.89;82.68;100045.11;126631;1093;22848;-78
2021/08/04 00:45:50;;;;;;;5.25;1.20;;;;;;;14.89;82.80;100056.35;126462;1093;24604;-77
2021/08/04 00:48:19;;;;;;;5.50;1.20;;;;;;;14.88;82.96;100049.19;126492;1093;22766;-77
2021/08/04 00:50:47;;;;;;;3.63;1.10;;;;;;;14.87;83.29;100040.01;126505;1093;22778;-77
2021/08/04 00:53:26;;;;;;;7.30;1.65;;;;;;;14.88;83.17;100037.94;126501;1093;26226;-77
2021/08/04 00:55:59;;;;;;;7.80;1.30;;;;;;;14.86;82.93;100027.22;126606;1093;25970;-78
2021/08/04 00:58:32;;;;;;;4.15;1.25;;;;;;;14.86;83.17;100027.22;126507;1092;22727;-78
2021/08/04 01:01:07;;;;;;;5.10;1.40;;;;;;;14.86;82.72;100032.84;126500;1093;24723;-78
2021/08/04 01:03:41;;;;;;;3.75;1.20;;;;;;;14.87;82.94;100033.61;126442;1092;26223;-78
2021/08/04 01:06:15;;;;;;;6.80;1.20;;;;;;;14.85;82.92;100034.14;126440;1093;22782;-78
2021/08/04 01:08:51;;;;;;;6.80;1.30;;;;;;;14.84;82.86;100026.97;126440;1093;22778;-78
2021/08/04 01:11:25;;;;;;;5.95;1.20;;;;;;;14.86;83.10;100030.03;126562;1093;22763;-77
2021/08/04 01:13:56;;;;;;;4.35;1.20;;;;;;;14.88;83.02;100021.85;126534;1093;24351;-78
2021/08/04 01:16:29;;;;;;;5.07;1.30;;;;;;;14.86;83.06;100027.22;126512;1093;22751;-78
2021/08/04 01:19:03;;;;;;;4.13;1.27;;;;;;;14.86;83.14;100015.20;126581;1093;22759;-77
2021/08/04 01:21:40;;;;;;;6.33;1.30;;;;;;;14.85;82.93;100014.47;126440;1093;24454;-78
2021/08/04 01:24:15;;;;;;;4.70;1.30;;;;;;;14.86;82.90;100018.79;126427;1093;22784;-78
2021/08/04 01:26:46;;;;;;;5.30;1.40;;;;;;;14.86;83.28;100020.83;126486;1093;22759;-78
2021/08/04 01:29:18;;;;;;;6.30;1.50;;;;;;;14.89;83.12;100029.02;126562;1093;22754;-77
2021/08/04 01:31:50;;;;;;;5.40;1.15;;;;;;;14.91;83.37;100022.88;126587;1093;22912;-78
2021/08/04 01:34:21;;;;;;;7.60;1.50;;;;;;;14.92;83.00;100025.16;126647;1092;22805;-78
2021/08/04 01:36:50;;;;;;;6.95;1.55;;;;;;;14.93;83.42;100017.50;126403;1093;24447;-78
2021/08/04 01:39:20;;;;;;;7.33;1.45;;;;;;;14.93;83.27;100012.66;126519;1093;22775;-77
2021/08/04 01:41:51;;;;;;;7.13;1.38;;;;;;;14.92;83.38;100013.92;126559;1093;22775;-77
2021/08/04 01:44:22;;;;;;;5.15;1.45;;;;;;;14.93;83.23;100018.27;126698;1093;25915;-77
2021/08/04 01:46:53;;;;;;;6.85;1.60;;;;;;;14.93;82.83;100020.31;126553;1093;22943;-78
2021/08/04 01:49:22;;;;;;;6.30;1.50;;;;;;;14.92;83.29;100022.35;126466;1093;22839;-78
2021/08/04 01:51:51;;;;;;;7.53;1.47;;;;;;;14.91;82.94;100020.06;126575;1093;25973;-77
2021/08/04 01:54:21;;;;;;;6.60;1.60;;;;;;;14.89;83.30;100017.77;126511;1093;22694;-78
2021/08/04 01:56:50;;;;;;;5.38;1.60;;;;;;;14.86;83.34;100018.79;126536;1093;22774;-78
2021/08/04 01:59:22;;;;;;;6.20;1.50;;;;;;;14.85;82.92;100025.70;126498;1093;22903;-77
2021/08/04 02:01:51;;;;;;;6.10;1.60;;;;;;;14.84;83.09;100012.92;126464;1093;24419;-77
2021/08/04 02:04:19;;;;;;;4.43;1.43;;;;;;;14.84;83.03;100009.33;126507;1093;23369;-77
2021/08/04 02:06:55;;;;;;;6.60;1.40;;;;;;;14.84;83.40;100004.48;126503;1093;22828;-77
2021/08/04 02:09:30;;;;;;;4.75;1.50;;;;;;;14.84;82.89;100020.58;126520;1092;23642;-78
2021/08/04 02:12:02;;;;;;;6.33;1.60;;;;;;;14.79;82.92;100024.17;126441;1093;23664;-78
2021/08/04 02:14:35;;;;;;;5.00;1.40;;;;;;;14.72;83.05;100019.84;126425;1093;24471;-77
2021/08/04 02:17:13;;;;;;;6.30;1.50;;;;;;;14.67;82.92;100023.41;126429;1093;22742;-78
2021/08/04 02:19:50;;;;;;;13.35;1.50;;;;;;;14.65;83.37;100030.84;126357;1093;22806;-77
2021/08/04 02:22:25;;;;;;;4.95;1.40;;;;;;;14.65;83.47;100025.22;126523;1093;22828;-78
2021/08/04 02:25:01;;;;;;;7.33;1.80;;;;;;;14.62;83.47;100031.85;126518;1093;22765;-77
2021/08/04 02:27:30;;;;;;;6.45;1.50;;;;;;;14.56;83.27;100035.45;126490;1093;23457;-77
2021/08/04 02:30:01;;;;;;;7.40;1.50;;;;;;;14.53;83.56;100033.64;126650;1093;22789;-78
2021/08/04 02:32:31;;;;;;;12.63;1.60;;;;;;;14.52;83.34;100023.67;126593;1093;26683;-77
2021/08/04 02:34:59;;;;;;;;;;;;;;;14.53;83.50;100024.45;126473;1093;22775;-78
2021/08/04 02:37:28;;;;;;;8.60;1.87;;;;;;;14.51;83.48;100015.77;126526;1093;21543;-78
2021/08/04 02:39:57;;;;;;;9.10;1.70;;;;;;;14.52;83.82;100022.93;126595;1092;26373;-77
2021/08/04 02:42:28;;;;;;;7.93;1.50;;;;;;;14.52;84.00;100023.67;126496;1093;22774;-78
2021/08/04 02:44:56;;;;;;;5.25;1.40;;;;;;;14.51;83.61;100019.34;126472;1093;22794;-77
2021/08/04 02:47:27;;;;;;;5.60;1.60;;;;;;;14.51;83.77;100022.16;126488;1093;23502;-77
2021/08/04 02:49:56;;;;;;;5.20;1.50;;;;;;;14.51;83.47;100019.34;126541;1093;22786;-78
2021/08/04 02:52:24;;;;;;;6.30;1.50;;;;;;;14.51;83.75;100016.54;126480;1093;22764;-77
2021/08/04 02:54:53;;;;;;;5.40;1.50;;;;;;;14.49;83.61;100019.09;126480;1093;22888;-77
2021/08/04 02:57:21;;;;;;;5.75;1.55;;;;;;;14.50;83.54;100025.48;126481;1093;22771;-78
2021/08/04 02:59:50;;;;;;;4.90;1.40;;;;;;;14.49;83.61;100033.14;126472;1092;24319;-78
2021/08/04 03:02:19;;;;;;;5.55;1.40;;;;;;;14.47;83.76;100030.08;126544;1093;26057;-77
2021/08/04 03:04:47;;;;;;;6.60;1.90;;;;;;;14.46;84.05;100024.98;126476;1093;22786;-77
2021/08/04 03:07:15;;;;;;;4.40;1.35;;;;;;;14.44;83.86;100033.16;126527;1093;22893;-78
2021/08/04 03:09:45;;;;;;;4.10;1.40;;;;;;;14.43;84.12;100025.98;126485;1093;22768;-77
2021/08/04 03:12:13;;;;;;;6.43;1.63;;;;;;;14.42;84.33;100030.83;126386;1093;24319;-77
2021/08/04 03:14:42;;;;;;;7.55;1.50;;;;;;;14.41;84.20;100029.31;126455;1092;22810;-77
2021/08/04 03:17:10;;;;;;;5.35;1.40;;;;;;;14.41;84.34;100023.70;126507;1092;22786;-77
2021/08/04 03:19:38;;;;;;;6.47;1.80;;;;;;;14.41;84.18;100034.16;126411;1092;22906;-77
2021/08/04 03:22:07;;;;;;;7.65;1.85;;;;;;;14.41;83.93;100039.77;126497;1093;24466;-77
2021/08/04 03:24:37;;;;;;;5.35;1.60;;;;;;;14.42;83.85;100030.09;126518;1093;22841;-77
2021/08/04 03:27:06;;;;;;;5.63;1.50;;;;;;;14.43;84.54;100037.99;126429;1093;22773;-78
2021/08/04 03:29:34;;;;;;;8.47;1.90;;;;;;;14.45;84.29;100034.67;126410;1093;22953;-78
2021/08/04 03:32:04;;;;;;;8.25;1.70;;;;;;;14.45;84.18;100034.67;126477;1093;22784;-78
2021/08/04 03:34:33;;;;;;;8.63;1.58;;;;;;;14.46;84.38;100044.64;126551;1093;22743;-77
2021/08/04 03:37:01;;;;;;;8.55;1.70;;;;;;;14.46;84.08;100039.02;126522;1093;23208;-77
2021/08/04 03:39:31;;;;;;;7.70;1.70;;;;;;;14.48;84.63;100042.83;126590;1092;25859;-78
2021/08/04 03:42:00;;;;;;;7.03;2.27;;;;;;;14.49;84.63;100046.41;126416;1093;22928;-77
2021/08/04 03:44:28;;;;;;;8.50;2.00;;;;;;;14.49;84.39;100047.19;126434;1093;22753;-77
2021/08/04 03:46:58;;;;;;;7.03;1.90;;;;;;;14.51;84.35;100041.05;126471;1093;22831;-77
2021/08/04 03:49:26;;;;;;;6.53;1.83;;;;;;;14.52;84.80;100042.59;126519;1093;22802;-77
2021/08/04 03:51:55;;;;;;;7.23;2.30;;;;;;;14.52;84.79;100053.83;126490;1092;27220;-77
2021/08/04 03:54:23;;;;;;;10.17;1.53;;;;;;;14.51;84.86;100057.90;126470;1093;22789;-77
2021/08/04 03:56:54;;;;;;;10.95;1.95;;;;;;;14.52;84.68;100056.64;126517;1092;24449;-78
2021/08/04 03:59:23;;;;;;;8.30;1.90;;;;;;;14.53;84.73;100058.93;126435;1093;25827;-78
2021/08/04 04:01:52;;;;;;;10.55;1.90;;;;;;;14.54;84.97;100056.89;126538;1093;22791;-77
2021/08/04 04:04:21;;;;;;;7.30;2.00;;;;;;;14.53;84.72;100064.55;126477;1093;22838;-77
2021/08/04 04:06:50;;;;;;;8.00;2.10;;;;;;;14.55;84.53;100061.22;126416;1093;22748;-77
2021/08/04 04:09:18;;;;;;;14.10;2.40;;;;;;;14.56;84.93;100063.54;126372;1093;22726;-78
2021/08/04 04:11:47;;;;;;;7.25;2.25;;;;;;;14.57;84.56;100069.91;126475;1093;24420;-78
2021/08/04 04:14:15;;;;;;;8.05;2.75;;;;;;;14.58;85.16;100077.06;126486;1093;22834;-78
2021/08/04 04:16:44;;;;;;;7.90;2.00;;;;;;;14.59;85.13;100081.39;126465;1093;24450;-78
2021/08/04 04:19:12;;;;;;;8.75;2.50;;;;;;;14.60;85.45;100074.52;126464;1093;26324;-78
2021/08/04 04:21:40;;;;;;;5.90;1.90;;;;;;;14.61;85.05;100073.22;126516;1093;22748;-78
2021/08/04 04:24:09;;;;;;;7.37;2.33;;;;;;;14.62;85.13;100071.95;126397;1093;27332;-78
2021/08/04 04:26:37;;;;;;;7.30;2.00;;;;;;;14.65;85.38;100081.41;126526;1093;22925;-77
2021/08/04 04:29:08;;;;;;;8.35;2.25;;;;;;;14.67;85.40;100081.67;126331;1093;22925;-77
2021/08/04 04:31:37;;;;;;;8.60;2.45;;;;;;;14.69;85.10;100081.92;126458;1093;26525;-78
2021/08/04 04:34:08;;;;;;;7.53;2.60;;;;;;;14.70;85.30;100087.02;126523;1093;22834;-77
2021/08/04 04:36:36;;;;;;;8.10;2.30;;;;;;;14.74;85.44;100086.76;126535;1093;23347;-78
2021/08/04 04:39:05;;;;;;;9.35;2.85;;;;;;;14.76;85.66;100095.44;126458;1093;24928;-77
2021/08/04 04:41:33;;;;;;;6.00;1.95;;;;;;;14.78;85.47;100095.70;126503;1093;27489;-78
2021/08/04 04:44:02;;;;;;;7.87;2.97;;;;;;;14.79;85.48;100095.20;126469;1093;26232;-78
2021/08/04 04:46:31;;;;;;;7.50;2.30;;;;;;;14.82;85.57;100096.20;126449;1093;27623;-78
2021/08/04 04:49:00;;;;;;;10.37;2.63;;;;;;;14.84;85.41;100100.05;126484;1092;26966;-78
2021/08/04 04:51:28;;;;;;;8.90;2.80;;;;;;;14.86;85.43;100091.09;126457;1093;26229;-78
2021/08/04 04:53:57;;;;;;;14.60;3.05;;;;;;;14.88;85.33;100105.39;126444;1092;22824;-79
2021/08/04 04:56:25;;;;;;;11.93;2.70;;;;;;;14.88;85.65;100099.78;126319;1093;22806;-78
2021/08/04 04:58:54;;;;;;;9.40;2.60;;;;;;;14.88;85.80;100111.02;126370;1093;22757;-78
2021/08/04 05:01:23;;;;;;;11.13;2.90;;;;;;;14.88;85.97;100111.02;126238;1093;22938;-78
2021/08/04 05:03:52;;;;;;;10.00;2.75;;;;;;;14.91;85.94;100110.78;126325;1093;22754;-78
2021/08/04 05:06:20;;;;;;;8.00;2.60;;;;;;;14.91;85.68;100116.41;126513;1092;22887;-77
2021/08/04 05:08:51;;;;;;;10.80;2.55;;;;;;;14.93;85.88;100110.27;126488;1093;22797;-79
2021/08/04 05:11:22;;;;;;;8.50;2.40;;;;;;;14.93;86.06;100110.27;126417;1093;25456;-78
2021/08/04 05:13:50;;;;;;;9.15;2.55;;;;;;;14.92;85.72;100115.11;126441;1093;22922;-78
2021/08/04 05:16:19;;;;;;;10.17;2.83;;;;;;;14.93;85.98;100116.66;126540;1093;22764;-77
2021/08/04 05:18:47;;;;;;;7.70;2.80;;;;;;;14.94;86.27;100109.74;126497;1093;22762;-78
2021/08/04 05:21:17;;;;;;;8.87;3.20;;;;;;;14.93;85.97;100113.84;126469;1093;27335;-78
2021/08/04 05:23:47;;;;;;;11.80;3.30;;;;;;;14.97;86.38;100114.35;126619;1092;22864;-78
2021/08/04 05:26:15;;;;;;;13.37;2.93;;;;;;;15.01;86.27;100117.67;126585;1093;22772;-78
2021/08/04 05:28:45;;;;;;;12.27;3.10;;;;;;;15.03;86.25;100114.34;126449;1092;22861;-78
2021/08/04 05:31:13;;;;;;;6.88;2.70;;;;;;;15.05;86.30;100117.41;126563;1093;22744;-78
2021/08/04 05:33:45;;;;;;;11.90;3.95;;;;;;;15.07;86.45;100115.62;126377;1092;22881;-78
2021/08/04 05:36:13;;;;;;;9.65;3.20;;;;;;;15.10;86.39;100120.23;126451;1093;22897;-78
2021/08/04 05:38:41;;;;;;;8.75;3.60;;;;;;;15.13;86.35;100115.59;126546;1093;22813;-79
2021/08/04 05:41:10;;;;;;;9.95;3.20;;;;;;;15.15;86.58;100113.04;126643;1091;22790;-79
2021/08/04 05:43:39;;;;;;;8.80;2.90;;;;;;;15.17;86.09;100104.85;126676;1093;22772;-79
2021/08/04 05:46:10;;;;;;;12.03;3.83;;;;;;;15.20;86.43;100110.23;126542;1092;22825;-79
2021/08/04 05:48:39;;;;;;;11.60;3.35;;;;;;;15.22;86.59;100110.48;126602;1092;24483;-79
2021/08/04 05:51:08;;;;;;;9.10;2.70;;;;;;;15.27;86.68;100114.55;126600;1093;22823;-79
2021/08/04 05:53:37;;;;;;;8.50;3.00;;;;;;;15.28;86.55;100114.05;126545;1093;22767;-79
2021/08/04 05:56:08;;;;;;;10.35;3.05;;;;;;;15.30;86.64;100114.30;126474;1091;25938;-78
2021/08/04 05:58:37;;;;;;;10.90;3.10;;;;;;;15.32;86.36;100119.41;126511;1093;29102;-78
2021/08/04 06:01:05;;;;;;;9.10;2.80;;;;;;;15.32;86.65;100108.92;126520;1093;25983;-79
2021/08/04 06:03:42;;;;;;;9.15;2.95;;;;;;;15.34;86.63;100114.80;126500;1093;22784;-78
2021/08/04 06:06:13;;;;;;;10.40;3.60;;;;;;;15.38;86.62;100117.34;126502;1092;22887;-78
2021/08/04 06:08:42;;;;;;;12.70;3.75;;;;;;;15.38;86.95;100115.30;126533;1092;22760;-79
2021/08/04 06:11:11;;;;;;;11.10;3.30;;;;;;;15.40;86.68;100114.78;126607;1093;22788;-79
2021/08/04 06:13:41;;;;;;;14.00;3.45;;;;;;;15.41;86.66;100117.07;126688;1093;22761;-79
2021/08/04 06:16:10;;;;;;;8.83;3.60;;;;;;;15.44;87.01;100114.53;126640;1092;22888;-78
2021/08/04 06:18:40;;;;;;;9.80;3.28;;;;;;;15.44;87.11;100120.94;126792;1092;22739;-79
2021/08/04 06:21:11;;;;;;;10.10;2.95;;;;;;;15.46;86.87;100126.07;126676;1093;24604;-78
2021/08/04 06:23:39;;;;;;;9.63;3.93;;;;;;;15.46;87.14;100126.07;126349;1093;24474;-78
2021/08/04 06:26:08;;;;;;;9.40;3.30;;;;;;;15.47;86.76;100116.33;126445;1092;22765;-78
2021/08/04 06:28:36;;;;;;;9.40;3.30;;;;;;;15.49;87.00;100114.54;126502;1093;22764;-78
2021/08/04 06:31:05;;;;;;;9.40;3.40;;;;;;;15.52;86.65;100107.13;126568;1093;23043;-78
2021/08/04 06:33:34;;;;;;;8.30;2.77;;;;;;;15.55;87.04;100111.70;126580;1093;22815;-79
2021/08/04 06:36:03;;;;;;;8.47;2.67;;;;;;;15.59;86.79;100107.34;126673;1093;22876;-79
2021/08/04 06:38:32;;;;;;;8.90;2.90;;;;;;;15.63;86.71;100107.84;126565;1093;22749;-78
2021/08/04 06:41:00;;;;;;;11.87;3.90;;;;;;;15.67;86.96;100118.81;126498;1093;25987;-79
2021/08/04 06:43:29;;;;;;;10.85;3.75;;;;;;;15.70;86.59;100117.80;126447;1092;22749;-78
2021/08/04 06:46:00;;;;;;;8.85;3.15;;;;;;;15.73;86.92;100120.33;126518;1092;22754;-78
2021/08/04 06:48:29;;;;;;;7.83;3.03;;;;;;;15.75;86.94;100116.99;126573;1092;22833;-79
2021/08/04 06:50:57;;;;;;;10.80;3.17;;;;;;;15.77;86.81;100114.42;126524;1092;22812;-79
2021/08/04 06:53:26;;;;;;;10.35;2.70;;;;;;;15.80;87.03;100116.99;126844;1093;22907;-79
2021/08/04 06:55:55;;;;;;;7.85;2.90;;;;;;;15.83;86.89;100124.38;126475;1093;22790;-79
2021/08/04 06:58:24;;;;;;;8.38;3.20;;;;;;;15.85;87.05;100130.26;126510;1093;26236;-79
2021/08/04 07:00:53;;;;;;;12.35;3.60;;;;;;;15.89;87.36;100136.38;126468;1093;22915;-79
2021/08/04 07:03:25;;;;;;;11.43;4.07;;;;;;;15.94;86.81;100146.09;126473;1093;27400;-78
2021/08/04 07:05:54;;;;;;;11.03;4.13;;;;;;;15.98;87.57;100143.77;126506;1093;22764;-79
2021/08/04 07:08:22;;;;;;;12.75;3.70;;;;;;;16.00;87.21;100144.02;126494;1093;22698;-79
2021/08/04 07:10:51;;;;;;;8.55;3.15;;;;;;;16.05;87.82;100144.02;126417;1092;25889;-78
2021/08/04 07:13:22;;;;;;;10.10;2.80;;;;;;;16.10;88.04;100148.84;126433;1092;25855;-78
2021/08/04 07:15:52;;;;;;;10.40;2.65;;;;;;;16.16;87.76;100149.57;126496;1093;24429;-79
2021/08/04 07:18:24;;;;;;;8.35;2.60;;;;;;;16.23;88.11;100144.67;126505;1093;22774;-78
2021/08/04 07:20:54;;;;;;;11.85;3.30;;;;;;;16.24;87.42;100152.63;126432;1093;26281;-78
2021/08/04 07:23:23;;;;;;;9.30;3.00;;;;;;;16.29;87.89;100157.44;126644;1093;22794;-78
2021/08/04 07:25:51;;;;;;;8.50;2.60;;;;;;;16.34;88.01;100155.89;126502;1093;25419;-78
2021/08/04 07:28:25;;;;;;;9.60;2.80;;;;;;;16.41;88.06;100153.27;126556;1093;23308;-78
2021/08/04 07:30:54;;;;;;;7.70;2.40;;;;;;;16.49;88.18;100143.00;126499;1093;22774;-78
2021/08/04 07:33:23;;;;;;;7.45;2.60;;;;;;;16.55;87.75;100151.44;126539;1093;22767;-78
2021/08/04 07:35:52;;;;;;;8.00;2.67;;;;;;;16.60;87.97;100154.21;126505;1093;22784;-78
2021/08/04 07:38:22;;;;;;;6.65;2.13;;;;;;;16.70;87.80;100158.23;126384;1092;22834;-78
2021/08/04 07:40:50;;;;;;;6.67;2.30;;;;;;;16.78;87.83;100156.38;126457;1093;25865;-78
2021/08/04 07:43:19;;;;;;;6.37;2.10;;;;;;;16.86;88.23;100148.88;126465;1093;25897;-78
2021/08/04 07:45:50;;;;;;;7.15;2.00;;;;;;;16.92;87.80;100151.67;126482;1093;22843;-78
2021/08/04 07:48:19;;;;;;;6.65;2.10;;;;;;;16.95;87.72;100154.20;126466;1093;22826;-78
2021/08/04 07:50:49;;;;;;;6.57;2.30;;;;;;;17.01;87.47;100156.22;126468;1093;27252;-78
2021/08/04 07:53:20;;;;;;;7.17;2.07;;;;;;;16.98;87.38;100152.39;126355;1093;22880;-78
2021/08/04 07:55:49;;;;;;;;;;;;;;;16.99;87.69;100157.50;126427;1093;27400;-78
2021/08/04 07:58:17;;;;;;;6.80;2.25;;;;;;;17.03;87.71;100148.00;126387;1092;21460;-77
2021/08/04 08:00:46;;;;;;;9.40;2.20;;;;;;;17.06;87.15;100152.57;126441;1092;22772;-78
2021/08/04 08:03:15;;;;;;;7.08;2.25;;;;;;;17.07;87.32;100156.94;126358;1092;22766;-78
2021/08/04 08:05:44;;;;;;;8.50;2.00;;;;;;;17.07;87.28;100149.22;126433;1093;23378;-78
2021/08/04 08:08:13;;;;;;;8.50;2.33;;;;;;;17.12;88.07;100147.64;126448;1093;23388;-78
2021/08/04 08:10:43;;;;;;;7.65;2.00;;;;;;;17.16;87.81;100151.71;126536;1093;22780;-78
2021/08/04 08:13:11;;;;;;;;;;;;;;;17.23;87.64;100153.20;126609;1093;22860;-78
2021/08/04 08:15:39;;;;;;;6.35;1.90;;;;;;;17.26;87.95;100158.53;126468;1092;21499;-78
2021/08/04 08:18:10;;;;;;;11.15;2.70;;;;;;;17.30;87.47;100158.27;126408;1093;23390;-78
2021/08/04 08:20:41;;;;;;;7.35;2.35;;;;;;;17.35;87.72;100157.43;126560;1093;22895;-78
2021/08/04 08:23:11;;;;;;;5.95;2.10;;;;;;;17.39;87.64;100158.67;126390;1092;22746;-78
2021/08/04 08:25:42;;;;;;;11.00;2.65;;;;;;;17.42;87.60;100157.60;126448;1093;27502;-77
2021/08/04 08:28:10;;;;;;;7.40;2.15;;;;;;;17.45;87.53;100159.38;126442;1092;22754;-78
2021/08/04 08:30:40;;;;;;;8.05;2.20;;;;;;;17.47;87.35;100156.02;126456;1093;22751;-79
2021/08/04 08:33:09;;;;;;;6.80;1.85;;;;;;;17.50;87.23;100158.60;126452;1092;22858;-78
2021/08/04 08:35:38;;;;;;;7.10;2.00;;;;;;;17.50;87.01;100160.66;126385;1093;22780;-78
2021/08/04 08:38:08;;;;;;;7.63;2.20;;;;;;;17.55;86.96;100156.99;126490;1093;22793;-79
2021/08/04 08:40:37;;;;;;;10.68;2.15;;;;;;;17.57;87.21;100165.69;126483;1093;23689;-77
2021/08/04 08:43:06;;;;;;;8.80;1.95;;;;;;;17.62;87.23;100153.59;126526;1093;22739;-77
2021/08/04 08:45:34;;;;;;;8.43;1.80;;;;;;;17.68;87.18;100159.94;126564;1093;24307;-78
2021/08/04 08:48:04;;;;;;;7.00;2.00;;;;;;;17.74;86.92;100152.16;126509;1093;24927;-78
2021/08/04 08:50:33;;;;;;;7.00;2.33;;;;;;;17.80;86.87;100152.86;126446;1093;24586;-77
2021/08/04 08:53:04;;;;;;;7.67;2.20;;;;;;;17.83;86.86;100146.17;126585;1093;22764;-78
2021/08/04 08:55:34;;;;;;;7.55;2.35;;;;;;;17.91;87.15;100146.32;126435;1093;22863;-78
2021/08/04 08:58:03;;;;;;;7.13;2.38;;;;;;;18.06;87.57;100138.17;126490;1093;22757;-78
2021/08/04 09:00:32;;;;;;;5.75;1.85;;;;;;;18.18;86.88;100142.38;126534;1093;22764;-78
2021/08/04 09:03:04;;;;;;;4.88;1.45;;;;;;;18.23;85.87;100141.55;126419;1093;22796;-77
2021/08/04 09:05:48;;;;;;;5.20;1.40;;;;;;;18.28;85.41;100146.34;126429;1093;22812;-78
2021/08/04 09:08:25;;;;;;;7.80;1.33;;;;;;;18.32;85.25;100147.58;126524;1093;22764;-78
2021/08/04 09:10:55;;;;;;;5.20;1.10;;;;;;;18.36;85.23;100139.55;126518;1093;24454;-78
2021/08/04 09:13:33;;;;;;;3.75;1.20;;;;;;;18.40;84.81;100137.18;126538;1093;22799;-78
2021/08/04 09:16:07;;;;;;;3.38;1.08;;;;;;;18.42;84.45;100140.23;126577;1093;22937;-78
2021/08/04 09:18:47;;;;;;;4.55;1.13;;;;;;;18.47;84.76;100142.26;126522;1093;22772;-78
2021/08/04 09:21:17;;;;;;;4.07;1.20;;;;;;;18.54;84.71;100146.50;126506;1092;22860;-78
2021/08/04 09:23:50;;;;;;;7.45;1.25;;;;;;;18.58;84.26;100146.95;126655;1093;22819;-78
2021/08/04 09:26:20;;;;;;;5.30;1.30;;;;;;;18.65;84.34;100135.03;126466;1093;22778;-78
2021/08/04 09:28:58;;;;;;;4.53;0.90;;;;;;;18.70;83.81;100145.52;126452;1093;22771;-77
2021/08/04 09:31:51;;;;;;;10.07;1.50;;;;;;;18.72;83.42;100142.14;126499;1092;28833;-78
2021/08/04 09:34:35;;;;;;;5.10;1.13;;;;;;;18.76;83.40;100142.59;126580;1093;25584;-78
2021/08/04 09:37:07;;;;;;;5.23;1.20;;;;;;;18.88;84.18;100149.59;126513;1091;22905;-78
2021/08/04 09:39:37;;;;;;;6.10;1.53;;;;;;;18.91;83.41;100142.86;126548;1093;22786;-78
2021/08/04 09:42:07;;;;;;;6.95;1.30;;;;;;;18.98;83.62;100139.39;126504;1091;22784;-78
2021/08/04 09:44:52;;;;;;;5.78;1.28;;;;;;;19.08;84.00;100140.50;126591;1092;22764;-78
2021/08/04 09:47:22;;;;;;;5.50;1.00;;;;;;;19.18;83.43;100130.31;126524;1092;22759;-78
2021/08/04 09:49:56;;;;;;;4.08;1.00;;;;;;;19.21;82.17;100137.70;126456;1093;22899;-78
2021/08/04 09:52:25;;;;;;;4.70;1.25;;;;;;;19.24;82.33;100131.72;126447;1093;22778;-78
2021/08/04 09:54:54;;;;;;;4.35;1.08;;;;;;;19.29;82.24;100130.09;126510;1093;22851;-78
2021/08/04 09:57:40;;;;;;;4.05;1.20;;;;;;;19.33;82.18;100133.36;126427;1092;23008;-78
2021/08/04 10:00:11;;;;;;;5.45;1.40;;;;;;;19.38;81.79;100134.61;126663;1093;24546;-78
2021/08/04 10:02:41;;;;;;;6.03;1.20;;;;;;;19.35;81.41;100130.78;126626;1093;22761;-78
2021/08/04 10:05:20;;;;;;;;;;;;;;;19.36;81.47;100132.33;126623;1093;22800;-78
2021/08/04 10:08:07;;;;;;;4.35;0.98;;;;;;;19.39;80.98;100127.65;126476;1093;21469;-78
2021/08/04 10:10:37;;;;;;;3.48;0.80;;;;;;;19.44;80.52;100129.59;126565;1093;22801;-78
2021/08/04 10:13:08;;;;;;;3.65;0.93;;;;;;;19.42;80.91;100127.32;126580;1093;22758;-78
2021/08/04 10:15:41;;;;;;;2.38;0.60;;;;;;;19.44;80.60;100121.11;126570;1093;22759;-78
2021/08/04 10:18:14;;;;;;;2.65;0.80;;;;;;;19.52;80.64;100124.81;126591;1093;22765;-78
2021/08/04 10:20:43;;;;;;;3.90;0.68;;;;;;;19.60;79.83;100122.84;126462;1093;22855;-78
2021/08/04 10:23:15;;;;;;;3.73;0.83;;;;;;;19.72;79.94;100124.17;126585;1093;26302;-79
2021/08/04 10:25:44;;;;;;;3.85;0.70;;;;;;;19.80;79.40;100120.11;126473;1093;22932;-78
2021/08/04 10:28:15;;;;;;;2.15;0.60;;;;;;;19.88;78.33;100117.41;126770;1093;22754;-78
2021/08/04 10:30:45;;;;;;;2.08;0.53;;;;;;;19.93;79.02;100114.44;126525;1093;24467;-78
2021/08/04 10:33:15;;;;;;;3.18;0.40;;;;;;;19.98;77.71;100110.74;126590;1093;22780;-77
2021/08/04 10:35:47;;;;;;;1.98;0.48;;;;;;;20.04;78.39;100111.38;126534;1093;22794;-77
2021/08/04 10:38:19;;;;;;;2.58;0.50;;;;;;;20.12;78.26;100112.23;126508;1093;22768;-78
2021/08/04 10:41:11;;;;;;;3.73;0.53;;;;;;;20.20;77.70;100112.34;126538;1093;22764;-78
2021/08/04 10:43:44;;;;;;;1.55;0.50;;;;;;;20.25;77.75;100107.87;126589;1092;25200;-77
2021/08/04 10:46:35;;;;;;;1.40;0.35;;;;;;;20.29;76.21;100114.73;126594;1092;24442;-78
2021/08/04 10:49:18;;;;;;;1.40;0.40;;;;;;;20.34;76.23;100110.25;126361;1093;24425;-78
2021/08/04 10:52:07;;;;;;;1.35;0.40;;;;;;;20.39;75.53;100106.51;126561;1093;23544;-78
2021/08/04 10:54:36;;;;;;;1.33;0.35;;;;;;;20.43;74.95;100106.93;126456;1093;26248;-78
2021/08/04 10:57:12;;;;;;;1.48;0.50;;;;;;;20.50;75.21;100107.03;126566;1093;27214;-78
2021/08/04 10:59:42;;;;;;;1.73;0.50;;;;;;;20.56;74.68;100104.05;126538;1092;22772;-78
2021/08/04 11:02:32;;;;;;;2.53;0.40;;;;;;;20.65;75.11;100100.75;126582;1093;22921;-78
2021/08/04 11:05:02;;;;;;;1.78;0.38;;;;;;;20.68;74.27;100099.63;126451;1093;22921;-78
2021/08/04 11:07:31;;;;;;;2.33;0.50;;;;;;;20.75;73.63;100104.63;126490;1093;26245;-78
2021/08/04 11:10:08;;;;;;;1.30;0.40;;;;;;;20.79;73.95;100100.13;126463;1093;22979;-78
2021/08/04 11:12:48;;;;;;;1.85;0.48;;;;;;;20.75;73.68;100098.95;126480;1093;24223;-78
2021/08/04 11:15:25;;;;;;;3.58;0.70;;;;;;;20.75;73.57;100091.18;126540;1091;26433;-78
2021/08/04 11:18:12;;;;;;;2.45;0.55;;;;;;;20.84;72.99;100099.22;126510;1092;22764;-78
2021/08/04 11:21:12;;;;;;;1.80;0.40;;;;;;;20.95;73.02;100098.18;126468;1093;26277;-77
2021/08/04 11:23:48;;;;;;;1.65;0.48;;;;;;;21.03;72.35;100101.87;126629;1093;22925;-78
2021/08/04 11:26:31;;;;;;;2.35;0.40;;;;;;;21.05;72.13;100085.04;126454;1093;22810;-78
2021/08/04 11:29:00;;;;;;;1.98;0.40;;;;;;;21.14;71.59;100090.23;126447;1093;23569;-78
2021/08/04 11:31:28;;;;;;;1.57;0.33;;;;;;;21.18;71.50;100084.97;126385;1093;22764;-78
2021/08/04 11:34:02;;;;;;;2.00;0.50;;;;;;;21.29;71.31;100081.80;126526;1093;27259;-78